Terminal Aerodrome Forecast
Issued by NWS

Home | Current Version | Previous Version | Text Only | Print | Product List | Glossary On
Versions: 1 2 3 4 5 6 7 8 9 10 11 12 13 14 15 16 17
000
FTUS45 KLKN 202337
TAFEKO
TAF
KEKO 202337Z 2100/2124 26015KT P6SM -RA SCT020 OVC040
      TEMPO 2100/2104 24015G22KT 4SM RA BR OVC012
     FM210400 21020KT 4SM -RA BR BKN015 OVC040
      TEMPO 2120/2124 24025G40KT 2SM -RA BR OVC010=

USA.gov is the U.S. government's official web portal to all federal, state and local government web resources and services.